createdAt,value
2016-10-11T00:00:57.143Z,932.3
2016-10-11T00:02:08.301Z,932.33
2016-10-11T00:03:19.470Z,932.2
2016-10-11T00:04:30.859Z,932.26
2016-10-11T00:05:42.057Z,932.3
2016-10-11T00:06:53.240Z,932.1
2016-10-11T00:08:04.391Z,932.2
2016-10-11T00:09:17.300Z,932.27
2016-10-11T00:10:28.481Z,932.05
2016-10-11T00:11:39.646Z,932.21
2016-10-11T00:12:50.826Z,932.19
2016-10-11T00:14:01.996Z,932.17
2016-10-11T00:15:13.160Z,932.18
2016-10-11T00:16:24.330Z,932.2
2016-10-11T00:17:35.494Z,932.16
2016-10-11T00:18:46.705Z,932.15
2016-10-11T00:19:58.445Z,932.13
2016-10-11T00:21:09.583Z,932.19
2016-10-11T00:22:20.741Z,932.19
2016-10-11T00:23:31.903Z,932.09
2016-10-11T00:24:43.642Z,932.17
2016-10-11T00:25:54.832Z,932.1
2016-10-11T00:27:05.995Z,931.99
2016-10-11T00:28:17.159Z,932.12
2016-10-11T00:29:28.339Z,932.1
2016-10-11T00:30:39.494Z,932.02
2016-10-11T00:31:50.690Z,932.03
2016-10-11T00:33:01.873Z,932.15
2016-10-11T00:34:13.044Z,932.09
2016-10-11T00:35:24.244Z,932.01
2016-10-11T00:36:36.005Z,932.16
2016-10-11T00:37:47.184Z,932.14
2016-10-11T00:38:58.380Z,932.11
2016-10-11T00:40:09.543Z,932.14
2016-10-11T00:41:20.871Z,932.19
2016-10-11T00:42:32.041Z,932.18
2016-10-11T00:43:43.211Z,931.88
2016-10-11T00:44:54.383Z,932.2
2016-10-11T00:46:05.556Z,932.19
2016-10-11T00:47:16.737Z,932.17
2016-10-11T00:48:27.916Z,932.21
2016-10-11T00:49:39.075Z,932.21
2016-10-11T00:50:50.249Z,932.09
2016-10-11T00:52:01.413Z,932.16
2016-10-11T00:53:12.597Z,932.18
2016-10-11T00:54:23.778Z,932.16
2016-10-11T00:55:35.014Z,932.21
2016-10-11T00:56:46.267Z,932.24
2016-10-11T00:57:58.838Z,932.21
2016-10-11T00:59:10.002Z,932.27
2016-10-11T01:00:21.164Z,932.31
2016-10-11T01:01:32.373Z,932.31
2016-10-11T01:02:43.522Z,932.31
2016-10-11T01:03:54.926Z,932.33
2016-10-11T01:05:06.983Z,932.25
2016-10-11T01:06:18.164Z,932.27
2016-10-11T01:07:29.328Z,932.22
2016-10-11T01:08:40.515Z,932.22
2016-10-11T01:09:51.710Z,932.28
2016-10-11T01:11:02.840Z,932.25
2016-10-11T01:12:14.012Z,932.16
2016-10-11T01:13:25.164Z,932.22
2016-10-11T01:14:36.349Z,932.24
2016-10-11T01:15:47.538Z,932.17
2016-10-11T01:16:58.688Z,932.28
2016-10-11T01:18:09.863Z,932.3
2016-10-11T01:19:21.015Z,932.23
2016-10-11T01:20:32.178Z,932.26
2016-10-11T01:21:43.351Z,932.26
2016-10-11T01:22:54.689Z,932.27
2016-10-11T01:24:05.854Z,932.25
2016-10-11T01:25:17.004Z,932.25
2016-10-11T01:26:28.210Z,932.2
2016-10-11T01:27:39.352Z,932.17
2016-10-11T01:28:50.512Z,932.26
2016-10-11T01:30:01.672Z,932.17
2016-10-11T01:31:12.839Z,932.18
2016-10-11T01:32:23.994Z,932.17
2016-10-11T01:33:35.204Z,932.17
2016-10-11T01:34:46.368Z,932.22
2016-10-11T01:35:57.548Z,932.18
2016-10-11T01:37:08.736Z,932.19
2016-10-11T01:38:19.932Z,932.22
2016-10-11T01:39:31.094Z,932.18
2016-10-11T01:40:42.249Z,932.18
2016-10-11T01:41:53.388Z,932.17
2016-10-11T01:43:04.626Z,932.21
2016-10-11T01:44:15.759Z,932.24
2016-10-11T01:45:26.934Z,932.26
2016-10-11T01:46:38.099Z,932.18
2016-10-11T01:47:49.269Z,932.26
2016-10-11T01:49:01.013Z,932.27
2016-10-11T01:50:12.183Z,932.24
2016-10-11T01:51:23.353Z,932.27
2016-10-11T01:52:34.517Z,932.23
2016-10-11T01:53:45.686Z,932.11
2016-10-11T01:54:56.857Z,932.17
2016-10-11T01:56:08.033Z,932.18
2016-10-11T01:57:19.218Z,932.17
2016-10-11T01:58:30.415Z,932.09
2016-10-11T01:59:41.573Z,932.07
2016-10-11T02:00:52.757Z,932.08
2016-10-11T02:02:03.922Z,932.07
2016-10-11T02:03:15.097Z,932.02
2016-10-11T02:04:26.270Z,932.02
2016-10-11T02:05:37.456Z,932.02
2016-10-11T02:06:48.625Z,931.96
2016-10-11T02:07:59.810Z,931.95
2016-10-11T02:09:10.955Z,931.96
2016-10-11T02:10:22.106Z,931.88
2016-10-11T02:11:33.267Z,931.92
2016-10-11T02:12:44.991Z,931.88
2016-10-11T02:13:56.169Z,931.88
2016-10-11T02:15:07.910Z,931.86
2016-10-11T02:16:19.101Z,931.78
2016-10-11T02:17:30.271Z,931.85
2016-10-11T02:18:41.437Z,931.77
2016-10-11T02:19:52.606Z,931.75
2016-10-11T02:21:03.740Z,931.71
2016-10-11T02:22:14.915Z,931.75
2016-10-11T02:23:26.102Z,931.76
2016-10-11T02:24:37.278Z,931.7
2016-10-11T02:25:48.474Z,931.68
2016-10-11T02:26:59.644Z,931.7
2016-10-11T02:28:10.809Z,931.63
2016-10-11T02:29:21.960Z,931.63
2016-10-11T02:30:33.115Z,931.56
2016-10-11T02:31:44.286Z,931.51
2016-10-11T02:32:55.446Z,931.45
2016-10-11T02:34:06.598Z,931.38
2016-10-11T02:35:17.755Z,931.35
2016-10-11T02:36:28.945Z,931.31
2016-10-11T02:37:40.104Z,931.31
2016-10-11T02:38:51.263Z,931.29
2016-10-11T02:40:02.433Z,931.24
2016-10-11T02:41:14.156Z,931.22
2016-10-11T02:42:25.328Z,931.21
2016-10-11T02:43:36.491Z,931.18
2016-10-11T02:44:47.702Z,931.17
2016-10-11T02:45:58.888Z,931.18
2016-10-11T02:47:10.741Z,931.17
2016-10-11T02:48:21.906Z,931.12
2016-10-11T02:49:33.090Z,931.04
2016-10-11T02:50:44.282Z,931.08
2016-10-11T02:51:55.444Z,931.14
2016-10-11T02:53:07.226Z,931.07
2016-10-11T02:54:18.386Z,931.09
2016-10-11T02:55:29.545Z,931.09
2016-10-11T02:56:40.735Z,931.06
2016-10-11T02:57:51.908Z,930.99
2016-10-11T02:59:03.052Z,931.04
2016-10-11T03:00:14.206Z,930.95
2016-10-11T03:01:25.372Z,930.92
2016-10-11T03:02:36.570Z,930.94
2016-10-11T03:03:47.714Z,930.94
2016-10-11T03:04:58.877Z,930.93
2016-10-11T03:06:10.038Z,930.97
2016-10-11T03:07:21.211Z,930.93
2016-10-11T03:08:32.404Z,930.96
2016-10-11T03:09:43.569Z,930.92
2016-10-11T03:10:54.722Z,930.81
2016-10-11T03:12:05.888Z,930.89
2016-10-11T03:13:17.041Z,930.95
2016-10-11T03:14:28.206Z,930.91
2016-10-11T03:15:39.385Z,930.98
2016-10-11T03:16:50.542Z,930.94
2016-10-11T03:18:01.694Z,930.91
2016-10-11T03:19:12.864Z,930.89
2016-10-11T03:20:24.597Z,930.83
2016-10-11T03:21:35.775Z,930.73
2016-10-11T03:22:46.943Z,930.68
2016-10-11T03:23:58.146Z,930.67
2016-10-11T03:25:09.903Z,930.59
2016-10-11T03:26:21.068Z,930.46
2016-10-11T03:27:32.236Z,930.6
2016-10-11T03:28:43.403Z,930.53
2016-10-11T03:29:55.134Z,930.48
2016-10-11T03:31:06.283Z,930.55
2016-10-11T03:32:17.430Z,930.52
2016-10-11T03:33:28.603Z,930.46
2016-10-11T03:34:39.757Z,930.57
2016-10-11T03:35:51.498Z,930.53
2016-10-11T03:37:03.263Z,930.48
2016-10-11T03:38:15.002Z,930.61
2016-10-11T03:39:26.168Z,930.59
2016-10-11T03:40:37.301Z,930.53
2016-10-11T03:41:48.474Z,930.56
2016-10-11T03:42:59.647Z,930.56
2016-10-11T03:44:11.355Z,930.48
2016-10-11T03:45:22.555Z,930.5
2016-10-11T03:46:34.259Z,930.5
2016-10-11T03:47:45.442Z,930.5
2016-10-11T03:48:56.612Z,930.51
2016-10-11T03:50:07.794Z,930.57
2016-10-11T03:51:19.555Z,930.58
2016-10-11T03:52:31.264Z,930.55
2016-10-11T03:53:43.535Z,930.53
2016-10-11T03:54:54.714Z,930.52
2016-10-11T03:56:05.887Z,930.53
2016-10-11T03:57:17.071Z,930.46
2016-10-11T03:58:28.239Z,930.48
2016-10-11T03:59:39.981Z,930.46
2016-10-11T04:00:51.155Z,930.44
2016-10-11T04:02:02.369Z,930.42
2016-10-11T04:03:13.554Z,930.34
2016-10-11T04:04:24.784Z,930.42
2016-10-11T04:05:35.935Z,930.4
2016-10-11T04:06:47.101Z,930.33
2016-10-11T04:07:58.254Z,930.3
2016-10-11T04:09:09.430Z,930.39
2016-10-11T04:10:21.188Z,930.4
2016-10-11T04:11:32.364Z,930.43
2016-10-11T04:12:43.556Z,930.41
2016-10-11T04:13:55.434Z,930.39
2016-10-11T04:15:06.609Z,930.36
2016-10-11T04:16:17.767Z,930.36
2016-10-11T04:17:28.951Z,930.32
2016-10-11T04:18:40.115Z,930.4
2016-10-11T04:19:51.849Z,930.39
2016-10-11T04:21:03.046Z,930.39
2016-10-11T04:22:14.210Z,930.37
2016-10-11T04:23:25.355Z,930.31
2016-10-11T04:24:36.516Z,930.35
2016-10-11T04:25:47.705Z,930.37
2016-10-11T04:26:58.860Z,930.33
2016-10-11T04:28:10.051Z,930.25
2016-10-11T04:29:21.758Z,930.25
2016-10-11T04:30:32.945Z,930.23
2016-10-11T04:31:44.723Z,930.17
2016-10-11T04:32:55.923Z,930.18
2016-10-11T04:34:07.104Z,930.15
2016-10-11T04:35:18.285Z,930.17
2016-10-11T04:36:30.018Z,930.21
2016-10-11T04:37:41.759Z,930.21
2016-10-11T04:38:52.936Z,930.24
2016-10-11T04:40:04.142Z,930.23
2016-10-11T04:41:15.332Z,930.24
2016-10-11T04:42:26.533Z,930.22
2016-10-11T04:43:37.718Z,930.22
2016-10-11T04:44:48.875Z,930.21
2016-10-11T04:46:00.015Z,930.21
2016-10-11T04:47:11.747Z,930.16
2016-10-11T04:48:24.027Z,930.16
2016-10-11T04:49:35.731Z,930.19
2016-10-11T04:50:46.922Z,930.18
2016-10-11T04:51:58.085Z,930.16
2016-10-11T04:53:09.240Z,930.17
2016-10-11T04:54:20.988Z,930.16
2016-10-11T04:55:32.710Z,930.21
2016-10-11T04:56:43.876Z,930.21
2016-10-11T04:57:55.002Z,930.23
2016-10-11T04:59:06.169Z,930.23
2016-10-11T05:00:17.330Z,930.19
2016-10-11T05:01:28.502Z,930.17
2016-10-11T05:02:39.668Z,930.2
2016-10-11T05:03:50.881Z,930.21
2016-10-11T05:05:02.052Z,930.2
2016-10-11T05:06:13.218Z,930.16
2016-10-11T05:07:24.408Z,930.17
2016-10-11T05:08:35.577Z,930.13
2016-10-11T05:09:46.727Z,930.08
2016-10-11T05:10:57.879Z,930.1
2016-10-11T05:12:09.039Z,930.14
2016-10-11T05:13:20.211Z,930.17
2016-10-11T05:14:31.377Z,930.13
2016-10-11T05:15:42.558Z,930.13
2016-10-11T05:16:53.737Z,930.11
2016-10-11T05:18:04.876Z,930.11
2016-10-11T05:19:16.064Z,930.14
2016-10-11T05:20:27.217Z,930.11
2016-10-11T05:21:38.379Z,930.05
2016-10-11T05:22:49.523Z,930
2016-10-11T05:24:01.262Z,929.96
2016-10-11T05:25:12.459Z,929.92
2016-10-11T05:26:23.639Z,929.91
2016-10-11T05:27:34.793Z,929.91
2016-10-11T05:28:45.946Z,929.97
2016-10-11T05:29:57.108Z,929.97
2016-10-11T05:31:08.860Z,930.01
2016-10-11T05:32:20.087Z,929.98
2016-10-11T05:33:31.273Z,930
2016-10-11T05:34:42.441Z,929.94
2016-10-11T05:35:53.619Z,929.9
2016-10-11T05:37:04.815Z,929.9
2016-10-11T05:38:15.985Z,929.86
2016-10-11T05:39:27.178Z,929.84
2016-10-11T05:40:38.337Z,929.81
2016-10-11T05:41:49.488Z,929.81
2016-10-11T05:43:00.655Z,929.75
2016-10-11T05:44:12.367Z,929.73
2016-10-11T05:45:23.536Z,929.74
2016-10-11T05:46:34.694Z,929.68
2016-10-11T05:47:46.394Z,929.66
2016-10-11T05:48:57.566Z,929.71
2016-10-11T05:50:08.724Z,929.78
2016-10-11T05:51:19.900Z,929.73
2016-10-11T05:52:31.068Z,929.75
2016-10-11T05:53:42.235Z,929.74
2016-10-11T05:54:53.410Z,929.74
2016-10-11T05:56:04.580Z,929.68
2016-10-11T05:57:15.715Z,929.69
2016-10-11T05:58:26.885Z,929.69
2016-10-11T05:59:38.051Z,929.65
2016-10-11T06:00:49.229Z,929.59
2016-10-11T06:02:00.417Z,929.61
2016-10-11T06:03:11.595Z,929.58
2016-10-11T06:04:22.740Z,929.53
2016-10-11T06:05:33.925Z,929.58
2016-10-11T06:06:45.116Z,929.59
2016-10-11T06:07:56.282Z,929.63
2016-10-11T06:09:07.435Z,929.69
2016-10-11T06:10:18.610Z,929.69
2016-10-11T06:11:29.781Z,929.64
2016-10-11T06:12:40.958Z,929.71
2016-10-11T06:13:52.132Z,929.76
2016-10-11T06:15:03.317Z,929.77
2016-10-11T06:16:14.470Z,929.78
2016-10-11T06:17:25.633Z,929.75
2016-10-11T06:18:36.772Z,929.72
2016-10-11T06:19:47.932Z,929.72
2016-10-11T06:20:59.131Z,929.63
2016-10-11T06:22:10.329Z,929.71
2016-10-11T06:23:21.500Z,929.73
2016-10-11T06:24:32.687Z,929.65
2016-10-11T06:25:43.885Z,929.59
2016-10-11T06:26:55.099Z,929.58
2016-10-11T06:28:06.243Z,929.6
2016-10-11T06:29:17.392Z,929.56
2016-10-11T06:30:28.552Z,929.57
2016-10-11T06:31:39.743Z,929.6
2016-10-11T06:32:50.915Z,929.5
2016-10-11T06:34:02.074Z,929.59
2016-10-11T06:35:13.292Z,929.53
2016-10-11T06:36:24.499Z,929.54
2016-10-11T06:37:35.666Z,929.57
2016-10-11T06:38:46.833Z,929.55
2016-10-11T06:39:58.013Z,929.58
2016-10-11T06:41:09.182Z,929.59
2016-10-11T06:42:20.345Z,929.6
2016-10-11T06:43:31.515Z,929.63
2016-10-11T06:44:42.698Z,929.66
2016-10-11T06:45:53.867Z,929.64
2016-10-11T06:47:05.039Z,929.65
2016-10-11T06:48:16.198Z,929.66
2016-10-11T06:49:27.365Z,929.63
2016-10-11T06:50:38.519Z,929.6
2016-10-11T06:51:49.666Z,929.59
2016-10-11T06:53:00.827Z,929.5
2016-10-11T06:54:11.995Z,929.53
2016-10-11T06:55:23.183Z,929.55
2016-10-11T06:56:34.351Z,929.57
2016-10-11T06:57:45.499Z,929.6
2016-10-11T06:58:56.667Z,929.55
2016-10-11T07:00:07.835Z,929.59
2016-10-11T07:01:19.004Z,929.61
2016-10-11T07:02:30.153Z,929.63
2016-10-11T07:03:41.318Z,929.6
2016-10-11T07:04:52.500Z,929.59
2016-10-11T07:06:03.700Z,929.59
2016-10-11T07:07:14.870Z,929.57
2016-10-11T07:08:26.050Z,929.59
2016-10-11T07:09:37.245Z,929.62
2016-10-11T07:10:48.440Z,929.57
2016-10-11T07:11:59.593Z,929.59
2016-10-11T07:13:10.757Z,929.56
2016-10-11T07:14:21.926Z,929.57
2016-10-11T07:15:33.112Z,929.59
2016-10-11T07:16:44.286Z,929.55
2016-10-11T07:17:55.461Z,929.58
2016-10-11T07:19:06.633Z,929.57
2016-10-11T07:20:17.810Z,929.62
2016-10-11T07:21:28.970Z,929.64
2016-10-11T07:22:40.118Z,929.67
2016-10-11T07:23:51.291Z,929.68
2016-10-11T07:25:02.450Z,929.68
2016-10-11T07:26:13.628Z,929.66
2016-10-11T07:27:24.821Z,929.63
2016-10-11T07:28:35.987Z,929.7
2016-10-11T07:29:47.193Z,929.7
2016-10-11T07:30:58.372Z,929.72
2016-10-11T07:32:09.547Z,929.67
2016-10-11T07:33:20.730Z,929.65
2016-10-11T07:34:31.914Z,929.7
2016-10-11T07:35:43.094Z,929.71
2016-10-11T07:36:54.242Z,929.69
2016-10-11T07:38:05.447Z,929.68
2016-10-11T07:39:16.631Z,929.68
2016-10-11T07:40:27.770Z,929.71
2016-10-11T07:41:38.922Z,929.73
2016-10-11T07:42:50.079Z,929.76
2016-10-11T07:44:01.218Z,929.76
2016-10-11T07:45:12.372Z,929.75
2016-10-11T07:46:23.531Z,929.8
2016-10-11T07:47:34.709Z,929.81
2016-10-11T07:48:45.878Z,929.76
2016-10-11T07:49:57.027Z,929.74
2016-10-11T07:51:08.168Z,929.76
2016-10-11T07:52:19.339Z,929.86
2016-10-11T07:53:30.495Z,929.88
2016-10-11T07:54:41.669Z,929.88
2016-10-11T07:55:52.827Z,929.9
2016-10-11T07:57:04.006Z,929.88
2016-10-11T07:58:15.173Z,929.92
2016-10-11T07:59:26.328Z,929.93
2016-10-11T08:00:37.494Z,929.94
2016-10-11T08:01:48.669Z,929.96
2016-10-11T08:02:59.837Z,929.96
2016-10-11T08:04:11.004Z,929.99
2016-10-11T08:05:22.162Z,930.02
2016-10-11T08:06:33.330Z,930
2016-10-11T08:07:44.507Z,929.99
2016-10-11T08:08:55.651Z,929.98
2016-10-11T08:10:06.830Z,929.99
2016-10-11T08:11:17.971Z,930.07
2016-10-11T08:12:29.128Z,930.1
2016-10-11T08:13:40.293Z,930.1
2016-10-11T08:14:51.457Z,930.14
2016-10-11T08:16:02.623Z,930.13
2016-10-11T08:17:13.789Z,930.21
2016-10-11T08:18:24.947Z,930.2
2016-10-11T08:19:36.119Z,930.23
2016-10-11T08:20:47.295Z,930.2
2016-10-11T08:21:58.459Z,930.23
2016-10-11T08:23:09.638Z,930.28
2016-10-11T08:24:20.814Z,930.28
2016-10-11T08:25:32.025Z,930.28
2016-10-11T08:26:43.218Z,930.3
2016-10-11T08:27:54.375Z,930.34
2016-10-11T08:29:06.069Z,930.32
2016-10-11T08:30:17.253Z,930.36
2016-10-11T08:31:28.421Z,930.36
2016-10-11T08:32:39.582Z,930.35
2016-10-11T08:33:50.730Z,930.4
2016-10-11T08:35:01.931Z,930.46
2016-10-11T08:36:13.716Z,930.47
2016-10-11T08:37:24.874Z,930.47
2016-10-11T08:38:36.039Z,930.47
2016-10-11T08:39:47.227Z,930.5
2016-10-11T08:40:58.408Z,930.5
2016-10-11T08:42:09.814Z,930.53
2016-10-11T08:43:21.025Z,930.58
2016-10-11T08:44:32.192Z,930.63
2016-10-11T08:45:43.400Z,930.63
2016-10-11T08:46:54.581Z,930.64
2016-10-11T08:48:05.748Z,930.67
2016-10-11T08:49:16.937Z,930.66
2016-10-11T08:50:28.123Z,930.66
2016-10-11T08:51:39.283Z,930.68
2016-10-11T08:52:50.565Z,930.67
2016-10-11T08:54:01.739Z,930.65
2016-10-11T08:55:12.900Z,930.71
2016-10-11T08:56:24.065Z,930.67
2016-10-11T08:57:35.225Z,930.67
2016-10-11T08:58:46.934Z,930.68
2016-10-11T08:59:58.104Z,930.73
2016-10-11T09:01:09.325Z,930.75
2016-10-11T09:02:20.482Z,930.78
2016-10-11T09:03:31.680Z,930.77
2016-10-11T09:04:42.886Z,930.77
2016-10-11T09:05:54.064Z,930.79
2016-10-11T09:07:05.219Z,930.79
2016-10-11T09:08:16.370Z,930.81
2016-10-11T09:09:27.551Z,930.87
2016-10-11T09:10:38.766Z,930.85
2016-10-11T09:11:49.935Z,930.93
2016-10-11T09:13:01.108Z,930.89
2016-10-11T09:14:12.304Z,930.93
2016-10-11T09:15:23.447Z,930.97
2016-10-11T09:16:34.603Z,930.97
2016-10-11T09:17:45.793Z,931.02
2016-10-11T09:18:56.956Z,931
2016-10-11T09:20:08.130Z,931.09
2016-10-11T09:21:19.306Z,931.09
2016-10-11T09:22:30.473Z,931.11
2016-10-11T09:23:41.642Z,931.12
2016-10-11T09:24:52.801Z,931.17
2016-10-11T09:26:03.983Z,931.2
2016-10-11T09:27:15.160Z,931.21
2016-10-11T09:28:26.337Z,931.24
2016-10-11T09:29:37.499Z,931.26
2016-10-11T09:30:48.688Z,931.33
2016-10-11T09:32:00.432Z,931.31
2016-10-11T09:33:11.614Z,931.35
2016-10-11T09:34:22.781Z,931.38
2016-10-11T09:35:33.950Z,931.45
2016-10-11T09:36:45.139Z,931.44
2016-10-11T09:37:56.326Z,931.43
2016-10-11T09:39:07.489Z,931.51
2016-10-11T09:40:18.669Z,931.52
2016-10-11T09:41:29.816Z,931.49
2016-10-11T09:42:40.990Z,931.51
2016-10-11T09:43:52.163Z,931.4
2016-10-11T09:45:03.342Z,931.37
2016-10-11T09:46:14.515Z,931.35
2016-10-11T09:47:25.693Z,931.27
2016-10-11T09:48:36.852Z,931.36
2016-10-11T09:49:48.017Z,931.34
2016-10-11T09:50:59.193Z,931.38
2016-10-11T09:52:10.366Z,931.38
2016-10-11T09:53:21.508Z,931.39
2016-10-11T09:54:32.671Z,931.36
2016-10-11T09:55:43.890Z,931.37
2016-10-11T09:56:55.039Z,931.31
2016-10-11T09:58:06.221Z,931.41
2016-10-11T09:59:17.390Z,931.47
2016-10-11T10:00:28.559Z,931.47
2016-10-11T10:01:39.742Z,931.48
2016-10-11T10:02:50.920Z,931.54
2016-10-11T10:04:02.140Z,931.56
2016-10-11T10:05:13.316Z,931.56
2016-10-11T10:06:24.476Z,931.62
2016-10-11T10:07:35.653Z,931.45
2016-10-11T10:08:46.848Z,931.53
2016-10-11T10:09:58.022Z,931.51
2016-10-11T10:11:09.191Z,931.56
2016-10-11T10:12:20.364Z,931.47
2016-10-11T10:13:31.532Z,931.54
2016-10-11T10:14:42.742Z,931.52
2016-10-11T10:15:53.903Z,931.52
2016-10-11T10:17:05.087Z,931.49
2016-10-11T10:18:16.283Z,931.41
2016-10-11T10:19:27.446Z,931.49
2016-10-11T10:20:38.657Z,931.5
2016-10-11T10:21:49.848Z,931.53
2016-10-11T10:23:01.000Z,931.57
2016-10-11T10:24:12.169Z,931.59
2016-10-11T10:25:23.319Z,931.63
2016-10-11T10:26:34.486Z,931.62
2016-10-11T10:27:45.840Z,931.59
2016-10-11T10:28:57.039Z,931.57
2016-10-11T10:30:08.203Z,931.6
2016-10-11T10:31:19.379Z,931.66
2016-10-11T10:32:30.557Z,931.64
2016-10-11T10:33:41.733Z,931.66
2016-10-11T10:34:52.916Z,931.67
2016-10-11T10:36:04.114Z,931.62
2016-10-11T10:37:15.309Z,931.65
2016-10-11T10:38:26.499Z,931.6
2016-10-11T10:39:37.673Z,931.61
2016-10-11T10:40:48.853Z,931.6
2016-10-11T10:42:00.037Z,931.64
2016-10-11T10:43:11.221Z,931.66
2016-10-11T10:44:22.392Z,931.63
2016-10-11T10:45:33.560Z,931.69
2016-10-11T10:46:44.751Z,931.72
2016-10-11T10:47:55.987Z,931.75
2016-10-11T10:49:07.582Z,931.74
2016-10-11T10:50:18.756Z,931.72
2016-10-11T10:51:29.920Z,931.67
2016-10-11T10:52:41.086Z,931.68
2016-10-11T10:53:52.275Z,931.67
2016-10-11T10:55:03.480Z,931.66
2016-10-11T10:56:14.655Z,931.62
2016-10-11T10:57:26.420Z,931.63
2016-10-11T10:58:37.597Z,931.63
2016-10-11T10:59:48.781Z,931.64
2016-10-11T11:00:59.931Z,931.65
2016-10-11T11:02:11.686Z,931.61
2016-10-11T11:03:22.867Z,931.7
2016-10-11T11:04:34.044Z,931.67
2016-10-11T11:05:45.248Z,931.6
2016-10-11T11:06:56.462Z,931.61
2016-10-11T11:08:07.608Z,931.67
2016-10-11T11:09:18.743Z,931.64
2016-10-11T11:10:29.916Z,931.63
2016-10-11T11:11:41.105Z,931.67
2016-10-11T11:12:52.306Z,931.68
2016-10-11T11:14:03.497Z,931.71
2016-10-11T11:15:14.708Z,931.74
2016-10-11T11:16:26.415Z,931.69
2016-10-11T11:17:37.599Z,931.7
2016-10-11T11:18:48.758Z,931.62
2016-10-11T11:19:59.956Z,931.66
2016-10-11T11:21:11.146Z,931.69
2016-10-11T11:22:22.319Z,931.64
2016-10-11T11:23:33.487Z,931.76
2016-10-11T11:24:44.660Z,931.71
2016-10-11T11:25:55.832Z,931.74
2016-10-11T11:27:06.989Z,931.75
2016-10-11T11:28:18.193Z,931.72
2016-10-11T11:29:29.354Z,931.81
2016-10-11T11:30:40.521Z,931.73
2016-10-11T11:31:51.700Z,931.7
2016-10-11T11:33:02.865Z,931.72
2016-10-11T11:34:14.053Z,931.63
2016-10-11T11:35:25.219Z,931.64
2016-10-11T11:36:36.385Z,931.58
2016-10-11T11:37:47.576Z,931.46
2016-10-11T11:38:58.735Z,931.4
2016-10-11T11:40:09.926Z,931.42
2016-10-11T11:41:21.161Z,931.38
2016-10-11T11:42:33.290Z,931.43
2016-10-11T11:43:44.463Z,931.3
2016-10-11T11:44:55.652Z,931.37
2016-10-11T11:46:06.841Z,931.27
2016-10-11T11:47:18.034Z,931.46
2016-10-11T11:48:29.174Z,931.51
2016-10-11T11:49:40.363Z,931.56
2016-10-11T11:50:51.542Z,931.61
2016-10-11T11:52:03.286Z,931.64
2016-10-11T11:53:14.461Z,931.63
2016-10-11T11:54:25.639Z,931.61
2016-10-11T11:55:36.794Z,931.59
2016-10-11T11:56:47.978Z,931.51
2016-10-11T11:57:59.177Z,931.52
2016-10-11T11:59:10.377Z,931.61
2016-10-11T12:00:21.559Z,931.6
2016-10-11T12:01:32.792Z,931.61
2016-10-11T12:02:43.955Z,931.56
2016-10-11T12:03:55.107Z,931.55
2016-10-11T12:05:06.274Z,931.59
2016-10-11T12:06:17.446Z,931.54
2016-10-11T12:07:28.604Z,931.61
2016-10-11T12:08:39.773Z,931.62
2016-10-11T12:09:50.984Z,931.68
2016-10-11T12:11:02.172Z,931.69
2016-10-11T12:12:13.349Z,931.68
2016-10-11T12:13:24.508Z,931.73
2016-10-11T12:14:35.685Z,931.7
2016-10-11T12:15:46.892Z,931.69
2016-10-11T12:16:58.051Z,931.7
2016-10-11T12:18:09.195Z,931.71
2016-10-11T12:19:20.433Z,931.65
2016-10-11T12:20:31.636Z,931.68
2016-10-11T12:21:42.800Z,931.67
2016-10-11T12:22:53.997Z,931.67
2016-10-11T12:24:05.136Z,931.57
2016-10-11T12:25:16.290Z,931.63
2016-10-11T12:26:27.489Z,931.62
2016-10-11T12:27:38.652Z,931.62
2016-10-11T12:28:49.845Z,931.64
2016-10-11T12:30:01.048Z,931.58
2016-10-11T12:31:12.228Z,931.58
2016-10-11T12:32:23.401Z,931.56
2016-10-11T12:33:34.587Z,931.52
2016-10-11T12:34:45.787Z,931.55
2016-10-11T12:35:56.956Z,931.55
2016-10-11T12:37:08.728Z,931.57
2016-10-11T12:38:19.902Z,931.57
2016-10-11T12:39:31.047Z,931.56
2016-10-11T12:40:42.234Z,931.53
2016-10-11T12:41:53.419Z,931.59
2016-10-11T12:43:04.622Z,931.6
2016-10-11T12:44:15.792Z,931.53
2016-10-11T12:45:27.007Z,931.6
2016-10-11T12:46:38.206Z,931.58
2016-10-11T12:47:49.371Z,931.54
2016-10-11T12:49:00.545Z,931.57
2016-10-11T12:50:11.810Z,931.59
2016-10-11T12:51:23.022Z,931.6
2016-10-11T12:52:34.246Z,931.61
2016-10-11T12:53:45.444Z,931.61
2016-10-11T12:54:56.632Z,931.57
2016-10-11T12:56:07.800Z,931.57
2016-10-11T12:57:18.975Z,931.61
2016-10-11T12:58:30.161Z,931.55
2016-10-11T12:59:41.333Z,931.53
2016-10-11T13:00:52.515Z,931.51
2016-10-11T13:02:03.710Z,931.56
2016-10-11T13:03:14.900Z,931.54
2016-10-11T13:04:26.065Z,931.46
2016-10-11T13:05:37.244Z,931.47
2016-10-11T13:06:48.471Z,931.44
2016-10-11T13:08:00.618Z,931.36
2016-10-11T13:09:11.790Z,931.28
2016-10-11T13:10:22.981Z,931.35
2016-10-11T13:11:34.201Z,931.32
2016-10-11T13:12:45.367Z,931.35
2016-10-11T13:13:56.563Z,931.38
2016-10-11T13:15:08.356Z,931.39
2016-10-11T13:16:19.597Z,931.31
2016-10-11T13:17:30.790Z,931.26
2016-10-11T13:18:41.967Z,931.3
2016-10-11T13:19:53.176Z,931.19
2016-10-11T13:21:04.339Z,931.15
2016-10-11T13:22:15.516Z,931.15
2016-10-11T13:23:26.678Z,931.1
2016-10-11T13:24:37.846Z,931.07
2016-10-11T13:25:49.043Z,930.96
2016-10-11T13:27:00.198Z,931.07
2016-10-11T13:28:11.381Z,931.09
2016-10-11T13:29:22.566Z,930.94
2016-10-11T13:30:33.756Z,930.97
2016-10-11T13:31:44.929Z,930.98
2016-10-11T13:32:56.671Z,930.97
2016-10-11T13:34:07.906Z,930.94
2016-10-11T13:35:19.091Z,930.96
2016-10-11T13:36:30.280Z,930.81
2016-10-11T13:37:41.456Z,930.8
2016-10-11T13:38:52.663Z,930.84
2016-10-11T13:40:03.864Z,930.82
2016-10-11T13:41:15.031Z,930.83
2016-10-11T13:42:26.213Z,930.8
2016-10-11T13:43:37.412Z,930.79
2016-10-11T13:44:48.612Z,930.81
2016-10-11T13:45:59.800Z,930.78
2016-10-11T13:47:10.985Z,930.8
2016-10-11T13:48:22.193Z,930.75
2016-10-11T13:49:33.376Z,930.71
2016-10-11T13:50:45.128Z,930.64
2016-10-11T13:51:56.293Z,930.69
2016-10-11T13:53:07.454Z,930.71
2016-10-11T13:54:18.630Z,930.66
2016-10-11T13:55:29.809Z,930.7
2016-10-11T13:56:41.021Z,930.66
2016-10-11T13:57:52.428Z,930.67
2016-10-11T13:59:03.604Z,930.62
2016-10-11T14:00:14.803Z,930.63
2016-10-11T14:01:26.002Z,930.62
2016-10-11T14:02:37.200Z,930.63
2016-10-11T14:03:48.639Z,930.58
2016-10-11T14:05:00.025Z,930.57
2016-10-11T14:06:11.195Z,930.53
2016-10-11T14:07:22.369Z,930.6
2016-10-11T14:08:34.075Z,930.57
2016-10-11T14:09:45.272Z,930.57
2016-10-11T14:10:56.449Z,930.58
2016-10-11T14:12:08.191Z,930.58
2016-10-11T14:13:19.419Z,930.63
2016-10-11T14:14:30.683Z,930.61
2016-10-11T14:15:41.880Z,930.58
2016-10-11T14:16:53.042Z,930.54
2016-10-11T14:18:04.396Z,930.55
2016-10-11T14:19:15.604Z,930.55
2016-10-11T14:20:27.145Z,930.49
2016-10-11T14:21:38.315Z,930.5
2016-10-11T14:22:49.523Z,930.47
2016-10-11T14:24:00.704Z,930.49
2016-10-11T14:25:11.916Z,930.43
2016-10-11T14:26:23.121Z,930.4
2016-10-11T14:27:34.344Z,930.37
2016-10-11T14:28:45.508Z,930.24
2016-10-11T14:29:56.963Z,930.27
2016-10-11T14:31:08.194Z,930.26
2016-10-11T14:32:19.372Z,930.26
2016-10-11T14:33:30.544Z,930.18
2016-10-11T14:34:41.733Z,930.15
2016-10-11T14:35:52.919Z,930.1
2016-10-11T14:37:04.103Z,930.15
2016-10-11T14:38:15.296Z,930.16
2016-10-11T14:39:26.477Z,930.16
2016-10-11T14:40:37.648Z,930.11
2016-10-11T14:41:48.826Z,930.16
2016-10-11T14:43:00.005Z,930.09
2016-10-11T14:44:11.319Z,930.11
2016-10-11T14:45:22.521Z,930.1
2016-10-11T14:46:33.705Z,929.98
2016-10-11T14:47:44.970Z,930.1
2016-10-11T14:48:56.143Z,930.08
2016-10-11T14:50:07.341Z,930.07
2016-10-11T14:51:18.539Z,930.04
2016-10-11T14:52:29.757Z,929.94